Flight Information

DEPARTURE
RIVERSIDE, CA
Elevation:
1536
Runways:
12/30 - 3061x100 - ASPH
14/32 - 13302x200 - CONC-G
ATIS:
134.75
Clearance Delivery:
121.75
Ground:
121.75
Tower:
127.65
DESTINATION
,
Elevation:
TPA:
1000 (est.)


6740.7 NM74° True-14° Var60° HDG

Flight Plan:
(click to file on line)

1. Type
2. Aircraft Identification
3. Aircraft Type / Special Equipment
4. True Airspeed
kts
5. Departure Airport
(ICAO code)
6. Arriving Airport
(ICAO code)
7. Cruising Altitude
ft
8. Alternate Airport
(ICAO code)
9. Route of Flight
10. Remarks


00:00:00 Departure ATIS: Destination ATIS:

Clearance Limit:
Route:
Altitude: Expect in minutes
Frequency:
Transponder: (7500 Hijack / 7600 Lost Comms / 7700 Emergency)


KRIV 080219Z 14014G23KT 10SM FEW020 SCT028 BKN037 12/09 A2995 RMK AO2A SLP141
Time: 2020-04-08T02:19:00Z
1586312938
Winds: 140 @ 14 kts
Gusting:23 kts
Visibility: 10.0 sm
Clouds (AGL): FEW 2000
SCT 2800
BKN 3700
Temperature: 12.0 C
Dew Point: 9.0 C
Pressure: 29.949802 in Hgbr


Notes:

Data extracted from FAA Digital Chart Supplement. Effective: 0901Z Thursday, Mar 26, 2020 to 0901Z Thursday, May 21, 2020
Current ATIS data is provided courtisy of PilotEdge.